createdAt,value
2022-08-21T00:01:53.164Z,99.90
2022-08-21T00:04:29.241Z,99.90
2022-08-21T00:07:03.026Z,99.90
2022-08-21T00:09:36.222Z,99.90
2022-08-21T00:12:09.660Z,99.90
2022-08-21T00:14:42.734Z,99.90
2022-08-21T00:17:18.856Z,99.90
2022-08-21T00:19:51.905Z,99.90
2022-08-21T00:22:24.821Z,99.90
2022-08-21T00:24:57.906Z,99.90
2022-08-21T00:27:30.774Z,99.90
2022-08-21T00:30:06.187Z,99.90
2022-08-21T00:32:40.487Z,99.90
2022-08-21T00:35:17.854Z,99.90
2022-08-21T00:37:50.793Z,99.90
2022-08-21T00:40:40.680Z,99.90
2022-08-21T00:43:16.174Z,99.90
2022-08-21T00:45:49.827Z,99.90
2022-08-21T00:48:23.666Z,99.90
2022-08-21T00:51:02.721Z,99.90
2022-08-21T00:53:40.056Z,99.90
2022-08-21T00:56:14.445Z,99.90
2022-08-21T00:58:48.380Z,99.90
2022-08-21T01:01:26.711Z,99.90
2022-08-21T01:04:00.234Z,99.90
2022-08-21T01:06:33.455Z,99.90
2022-08-21T01:09:06.380Z,99.90
2022-08-21T01:11:39.493Z,99.90
2022-08-21T01:14:13.899Z,99.90
2022-08-21T01:16:49.536Z,99.90
2022-08-21T01:19:23.818Z,99.90
2022-08-21T01:21:57.114Z,99.90
2022-08-21T01:24:30.076Z,99.90
2022-08-21T01:27:03.418Z,99.90
2022-08-21T01:29:46.260Z,99.90
2022-08-21T01:32:21.438Z,99.90
2022-08-21T01:34:54.723Z,99.90
2022-08-21T01:37:27.947Z,99.90
2022-08-21T01:40:00.949Z,99.90
2022-08-21T01:42:34.174Z,99.90
2022-08-21T01:45:08.915Z,99.90
2022-08-21T01:47:42.219Z,99.90
2022-08-21T01:50:20.400Z,99.90
2022-08-21T01:52:53.496Z,99.90
2022-08-21T01:55:26.744Z,99.90
2022-08-21T01:58:00.865Z,99.90
2022-08-21T02:00:34.159Z,99.90
2022-08-21T02:03:07.237Z,99.90
2022-08-21T02:05:40.166Z,99.90
2022-08-21T02:08:13.915Z,99.90
2022-08-21T02:10:49.121Z,99.90
2022-08-21T02:13:22.793Z,99.90
2022-08-21T02:15:55.832Z,99.90
2022-08-21T02:18:28.897Z,99.90
2022-08-21T02:21:02.239Z,99.90
2022-08-21T02:23:35.751Z,99.90
2022-08-21T02:26:09.854Z,99.90
2022-08-21T02:28:43.531Z,99.90
2022-08-21T02:31:16.681Z,99.90
2022-08-21T02:33:49.730Z,99.90
2022-08-21T02:36:22.706Z,99.90
2022-08-21T02:38:55.797Z,99.90
2022-08-21T02:41:28.674Z,99.90
2022-08-21T02:44:01.597Z,99.90
2022-08-21T02:46:34.737Z,99.90
2022-08-21T02:49:07.639Z,99.90
2022-08-21T02:51:41.004Z,99.90
2022-08-21T02:54:13.996Z,99.90
2022-08-21T02:56:46.932Z,99.90
2022-08-21T02:59:20.125Z,99.90
2022-08-21T03:01:53.630Z,99.90
2022-08-21T03:04:26.710Z,99.90
2022-08-21T03:06:59.623Z,99.90
2022-08-21T03:09:32.519Z,99.90
2022-08-21T03:12:05.788Z,99.90
2022-08-21T03:14:39.622Z,99.90
2022-08-21T03:19:46.173Z,99.90
2022-08-21T03:22:19.112Z,99.90
2022-08-21T03:24:52.906Z,99.90
2022-08-21T03:27:27.602Z,99.90
2022-08-21T03:30:04.574Z,99.90
2022-08-21T03:32:37.596Z,99.90
2022-08-21T03:35:10.955Z,99.90
2022-08-21T03:37:44.845Z,99.90
2022-08-21T03:40:21.432Z,99.90
2022-08-21T03:42:54.575Z,99.90
2022-08-21T03:45:28.567Z,99.90
2022-08-21T03:48:04.478Z,99.90
2022-08-21T03:50:41.525Z,99.90
2022-08-21T03:53:17.539Z,99.90
2022-08-21T03:55:53.695Z,99.90
2022-08-21T03:58:28.952Z,99.90
2022-08-21T04:01:03.429Z,99.90
2022-08-21T04:03:38.295Z,99.90
2022-08-21T04:06:11.253Z,99.90
2022-08-21T04:08:44.211Z,99.90
2022-08-21T04:11:17.299Z,99.90
2022-08-21T04:13:50.367Z,99.90
2022-08-21T04:16:23.516Z,99.90
2022-08-21T04:18:56.437Z,99.90
2022-08-21T04:21:30.442Z,99.90
2022-08-21T04:24:03.684Z,99.90
2022-08-21T04:26:37.966Z,99.90
2022-08-21T04:29:10.956Z,99.90
2022-08-21T04:31:44.725Z,99.90
2022-08-21T04:34:17.848Z,99.90
2022-08-21T04:36:50.809Z,99.90
2022-08-21T04:39:25.205Z,99.90
2022-08-21T04:42:02.899Z,99.90
2022-08-21T04:44:35.876Z,99.90
2022-08-21T04:47:09.059Z,99.90
2022-08-21T04:49:42.030Z,99.90
2022-08-21T04:52:18.517Z,99.90
2022-08-21T04:54:54.911Z,99.90
2022-08-21T04:57:48.160Z,99.90
2022-08-21T05:00:25.405Z,99.90
2022-08-21T05:03:00.422Z,99.90
2022-08-21T05:05:33.837Z,99.90
2022-08-21T05:08:09.188Z,99.90
2022-08-21T05:10:43.239Z,99.90
2022-08-21T05:13:17.038Z,99.90
2022-08-21T05:15:50.095Z,99.90
2022-08-21T05:18:23.221Z,99.90
2022-08-21T05:20:56.244Z,99.90
2022-08-21T05:38:50.397Z,99.90
2022-08-21T05:41:23.591Z,99.90
2022-08-21T05:43:56.592Z,99.90
2022-08-21T05:46:29.606Z,99.90
2022-08-21T05:49:02.860Z,99.90
2022-08-21T05:51:36.256Z,99.90
2022-08-21T05:54:09.302Z,99.90
2022-08-21T05:56:45.489Z,99.90
2022-08-21T05:59:19.251Z,99.90
2022-08-21T06:01:53.768Z,99.90
2022-08-21T06:04:27.294Z,99.90
2022-08-21T06:07:00.367Z,99.90
2022-08-21T06:09:34.308Z,99.90
2022-08-21T06:12:11.154Z,99.90
2022-08-21T06:14:44.153Z,99.90
2022-08-21T06:17:17.339Z,99.90
2022-08-21T06:19:55.169Z,99.90
2022-08-21T06:22:28.238Z,99.90
2022-08-21T06:25:01.201Z,99.90
2022-08-21T06:27:34.216Z,99.90
2022-08-21T06:30:09.016Z,99.90
2022-08-21T06:32:42.465Z,99.90
2022-08-21T06:35:15.477Z,99.90
2022-08-21T06:37:48.548Z,99.90
2022-08-21T06:40:21.732Z,99.90
2022-08-21T06:42:54.923Z,99.90
2022-08-21T06:45:32.258Z,99.90
2022-08-21T06:48:07.908Z,99.90
2022-08-21T06:50:41.477Z,99.90
2022-08-21T06:53:16.909Z,99.90
2022-08-21T06:55:50.044Z,99.90
2022-08-21T06:58:23.288Z,99.90
2022-08-21T07:01:00.800Z,99.90
2022-08-21T07:03:38.108Z,99.90
2022-08-21T07:06:11.963Z,99.90
2022-08-21T07:08:45.045Z,99.90
2022-08-21T07:11:25.481Z,99.90
2022-08-21T07:13:59.382Z,99.90
2022-08-21T07:16:32.389Z,99.90
2022-08-21T07:19:05.807Z,99.90
2022-08-21T07:21:38.964Z,99.90
2022-08-21T07:24:13.430Z,99.90
2022-08-21T07:26:46.485Z,99.90
2022-08-21T07:29:19.664Z,99.90
2022-08-21T07:31:52.767Z,99.90
2022-08-21T07:34:25.994Z,99.90
2022-08-21T07:36:59.693Z,99.90
2022-08-21T07:39:39.549Z,99.90
2022-08-21T07:42:12.665Z,99.90
2022-08-21T07:44:45.774Z,99.90
2022-08-21T07:47:29.582Z,99.90
2022-08-21T07:50:14.514Z,99.90
2022-08-21T07:52:48.577Z,99.90
2022-08-21T07:55:23.162Z,99.90
2022-08-21T07:57:56.630Z,99.90
2022-08-21T08:00:31.931Z,99.90
2022-08-21T08:03:05.134Z,99.90
2022-08-21T08:05:40.138Z,99.90
2022-08-21T08:08:13.020Z,99.90
2022-08-21T08:10:46.500Z,99.90
2022-08-21T08:13:19.392Z,99.90
2022-08-21T08:15:52.818Z,99.90
2022-08-21T08:18:25.757Z,99.90
2022-08-21T08:20:58.675Z,99.90
2022-08-21T08:23:32.791Z,99.90
2022-08-21T08:26:06.603Z,99.90
2022-08-21T08:28:39.688Z,99.90
2022-08-21T08:31:12.692Z,99.50
2022-08-21T08:33:45.900Z,99.40
2022-08-21T08:36:20.077Z,98.50
2022-08-21T08:38:53.070Z,98.80
2022-08-21T08:41:30.857Z,99.10
2022-08-21T08:44:06.846Z,98.00
2022-08-21T08:46:51.214Z,96.40
2022-08-21T08:49:55.432Z,97.60
2022-08-21T08:52:31.760Z,96.80
2022-08-21T08:55:10.094Z,96.40
2022-08-21T08:57:49.925Z,95.20
2022-08-21T09:00:25.412Z,94.30
2022-08-21T09:03:02.039Z,95.40
2022-08-21T09:06:08.603Z,95.70
2022-08-21T09:10:03.613Z,95.20
2022-08-21T09:13:07.089Z,94.70
2022-08-21T09:22:02.179Z,94.10
2022-08-21T09:37:00.510Z,92.90
2022-08-21T09:39:48.236Z,92.40
2022-08-21T09:42:29.908Z,93.20
2022-08-21T09:45:17.369Z,93.20
2022-08-21T09:51:21.057Z,91.20
2022-08-21T09:54:13.360Z,93.00
2022-08-21T09:57:21.325Z,92.60
2022-08-21T09:59:58.056Z,92.50
2022-08-21T10:02:39.373Z,92.50
2022-08-21T10:05:26.214Z,93.10
2022-08-21T10:08:05.242Z,92.30
2022-08-21T10:10:41.174Z,91.00
2022-08-21T10:13:31.400Z,91.10
2022-08-21T10:16:29.524Z,92.60
2022-08-21T10:19:31.893Z,92.80
2022-08-21T10:22:10.525Z,91.50
2022-08-21T10:25:13.135Z,90.50
2022-08-21T10:28:02.376Z,90.20
2022-08-21T10:31:01.184Z,90.90
2022-08-21T10:33:57.993Z,91.90
2022-08-21T10:37:10.698Z,91.80
2022-08-21T10:40:10.850Z,91.50
2022-08-21T10:43:01.300Z,91.90
2022-08-21T10:46:03.672Z,92.40
2022-08-21T10:48:52.051Z,92.00
2022-08-21T10:51:29.927Z,92.70
2022-08-21T10:54:38.326Z,91.30
2022-08-21T10:57:32.095Z,90.00
2022-08-21T11:00:24.393Z,89.20
2022-08-21T11:03:26.389Z,87.90
2022-08-21T11:06:10.668Z,86.70
2022-08-21T11:08:55.666Z,86.90
2022-08-21T11:11:35.845Z,85.80
2022-08-21T11:14:27.333Z,85.30
2022-08-21T11:17:09.080Z,84.10
2022-08-21T11:20:11.576Z,83.70
2022-08-21T11:23:00.013Z,81.80
2022-08-21T11:25:45.271Z,83.90
2022-08-21T11:28:29.128Z,81.90
2022-08-21T11:31:19.770Z,82.70
2022-08-21T11:34:13.879Z,82.00
2022-08-21T11:37:06.106Z,82.80
2022-08-21T11:39:59.232Z,79.00
2022-08-21T11:42:42.566Z,78.20
2022-08-21T11:45:32.478Z,78.60
2022-08-21T11:48:44.752Z,78.80
2022-08-21T11:51:23.751Z,71.50
2022-08-21T11:54:22.697Z,73.00
2022-08-21T11:57:02.367Z,74.20
2022-08-21T12:00:10.113Z,75.00
2022-08-21T12:02:54.879Z,72.00
2022-08-21T12:05:36.858Z,70.30
2022-08-21T12:08:34.670Z,70.70
2022-08-21T12:11:28.098Z,69.70
2022-08-21T12:14:06.784Z,67.80
2022-08-21T12:16:42.865Z,69.00
2022-08-21T12:19:21.764Z,66.50
2022-08-21T12:22:07.984Z,67.30
2022-08-21T12:29:33.023Z,65.90
2022-08-21T12:32:28.713Z,64.90
2022-08-21T12:35:36.229Z,65.70
2022-08-21T12:38:16.861Z,65.50
2022-08-21T12:41:04.390Z,63.90
2022-08-21T12:43:43.049Z,66.80
2022-08-21T12:46:32.035Z,68.00
2022-08-21T12:49:26.841Z,66.20
2022-08-21T12:52:02.879Z,66.70
2022-08-21T12:54:43.173Z,66.90
2022-08-21T12:57:25.754Z,67.20
2022-08-21T13:00:01.353Z,67.20
2022-08-21T13:02:40.857Z,67.90
2022-08-21T13:05:17.054Z,68.20
2022-08-21T13:07:50.065Z,68.60
2022-08-21T13:10:26.855Z,71.60
2022-08-21T13:13:16.019Z,70.20
2022-08-21T13:16:06.261Z,71.00
2022-08-21T13:18:57.477Z,72.50
2022-08-21T13:21:39.686Z,70.90
2022-08-21T13:24:41.929Z,70.10
2022-08-21T13:27:23.258Z,71.00
2022-08-21T13:30:08.403Z,71.10
2022-08-21T13:32:45.270Z,70.10
2022-08-21T13:35:46.787Z,72.70
2022-08-21T13:38:26.620Z,70.40
2022-08-21T13:41:29.828Z,67.70
2022-08-21T13:44:29.098Z,68.30
2022-08-21T13:47:05.970Z,71.10
2022-08-21T13:49:43.337Z,72.00
2022-08-21T13:52:25.127Z,72.00
2022-08-21T13:55:13.209Z,70.70
2022-08-21T13:57:46.083Z,73.00
2022-08-21T14:00:29.863Z,72.20
2022-08-21T14:03:07.861Z,72.10
2022-08-21T14:05:47.914Z,72.20
2022-08-21T14:08:36.011Z,73.50
2022-08-21T14:11:13.372Z,75.60
2022-08-21T14:13:57.658Z,74.10
2022-08-21T14:16:43.200Z,74.20
2022-08-21T14:19:25.345Z,74.30
2022-08-21T14:22:02.535Z,77.60
2022-08-21T14:24:40.978Z,78.30
2022-08-21T14:27:18.486Z,75.70
2022-08-21T14:29:51.515Z,75.00
2022-08-21T14:32:30.799Z,75.60
2022-08-21T14:35:06.968Z,75.70
2022-08-21T14:37:43.725Z,77.60
2022-08-21T14:40:18.755Z,75.90
2022-08-21T14:42:54.761Z,74.70
2022-08-21T14:45:31.363Z,74.70
2022-08-21T14:48:12.825Z,73.60
2022-08-21T14:50:47.337Z,75.80
2022-08-21T14:53:22.499Z,73.50
2022-08-21T14:56:09.043Z,75.40
2022-08-21T14:58:49.723Z,74.70
2022-08-21T15:01:29.661Z,76.10
2022-08-21T15:04:11.556Z,73.20
2022-08-21T15:06:51.859Z,74.20
2022-08-21T15:09:34.178Z,75.00
2022-08-21T15:12:13.885Z,74.60
2022-08-21T15:14:48.022Z,74.90
2022-08-21T15:17:21.222Z,74.80
2022-08-21T15:19:54.270Z,76.10
2022-08-21T15:22:27.691Z,75.80
2022-08-21T15:25:02.500Z,73.90
2022-08-21T15:27:36.015Z,73.80
2022-08-21T15:30:09.836Z,73.80
2022-08-21T15:32:42.839Z,74.40
2022-08-21T15:35:15.914Z,75.30
2022-08-21T15:37:48.803Z,74.60
2022-08-21T15:40:22.114Z,74.20
2022-08-21T15:43:00.100Z,75.20
2022-08-21T15:45:34.570Z,75.40
2022-08-21T15:48:08.043Z,75.60
2022-08-21T15:50:41.369Z,75.60
2022-08-21T15:53:15.670Z,75.40
2022-08-21T15:55:56.892Z,76.00
2022-08-21T15:58:38.271Z,76.10
2022-08-21T16:01:20.264Z,75.70
2022-08-21T16:04:08.770Z,76.10
2022-08-21T16:06:59.254Z,77.00
2022-08-21T16:09:42.148Z,76.20
2022-08-21T16:12:29.950Z,76.60
2022-08-21T16:15:10.869Z,76.90
2022-08-21T16:17:54.137Z,75.50
2022-08-21T16:20:29.501Z,76.50
2022-08-21T16:23:02.825Z,78.20
2022-08-21T16:25:38.146Z,77.80
2022-08-21T16:28:16.438Z,77.10
2022-08-21T16:30:52.287Z,76.60
2022-08-21T16:33:40.487Z,78.20
2022-08-21T16:36:14.674Z,78.20
2022-08-21T16:38:48.423Z,77.90
2022-08-21T16:41:23.225Z,77.20
2022-08-21T16:43:56.344Z,78.00
2022-08-21T16:46:36.614Z,78.50
2022-08-21T16:49:10.095Z,78.20
2022-08-21T16:51:43.715Z,77.90
2022-08-21T16:54:17.228Z,78.40
2022-08-21T16:56:51.020Z,77.70
2022-08-21T16:59:27.293Z,78.70
2022-08-21T17:02:00.164Z,79.20
2022-08-21T17:04:33.552Z,79.40
2022-08-21T17:07:06.396Z,79.20
2022-08-21T17:09:39.823Z,79.00
2022-08-21T17:12:12.876Z,78.40
2022-08-21T17:14:46.109Z,78.60
2022-08-21T17:17:19.269Z,79.70
2022-08-21T17:19:52.245Z,79.60
2022-08-21T17:22:25.194Z,79.90
2022-08-21T17:24:58.244Z,80.90
2022-08-21T17:27:31.083Z,80.70
2022-08-21T17:30:05.890Z,80.40
2022-08-21T17:32:39.486Z,80.60
2022-08-21T17:35:14.303Z,80.30
2022-08-21T17:37:47.741Z,80.10
2022-08-21T17:40:20.828Z,80.50
2022-08-21T17:42:53.706Z,81.70
2022-08-21T17:45:27.450Z,80.30
2022-08-21T17:48:00.352Z,80.30
2022-08-21T17:50:33.780Z,82.50
2022-08-21T17:53:06.712Z,81.70
2022-08-21T17:55:41.592Z,81.30
2022-08-21T17:58:15.388Z,82.40
2022-08-21T18:00:49.437Z,83.10
2022-08-21T18:03:23.298Z,82.80
2022-08-21T18:05:57.127Z,82.60
2022-08-21T18:08:31.987Z,82.80
2022-08-21T18:11:05.811Z,82.70
2022-08-21T18:13:43.454Z,84.30
2022-08-21T18:16:19.591Z,82.80
2022-08-21T18:18:52.953Z,84.80
2022-08-21T18:21:26.207Z,85.10
2022-08-21T18:23:59.403Z,84.00
2022-08-21T18:26:41.820Z,84.20
2022-08-21T18:29:19.454Z,85.20
2022-08-21T18:31:56.140Z,86.00
2022-08-21T18:34:50.169Z,85.20
2022-08-21T18:37:26.334Z,84.70
2022-08-21T18:39:59.764Z,86.40
2022-08-21T18:42:55.015Z,85.90
2022-08-21T18:45:29.119Z,85.60
2022-08-21T18:48:03.732Z,84.40
2022-08-21T18:50:38.966Z,87.00
2022-08-21T18:56:08.290Z,86.30
2022-08-21T18:58:48.882Z,86.90
2022-08-21T19:01:22.306Z,87.60
2022-08-21T19:04:07.521Z,87.70
2022-08-21T19:06:45.479Z,87.60
2022-08-21T19:09:20.363Z,87.90
2022-08-21T19:11:55.456Z,88.30
2022-08-21T19:14:40.405Z,89.20
2022-08-21T19:17:19.927Z,88.60
2022-08-21T19:20:25.696Z,88.40
2022-08-21T19:23:13.891Z,89.40
2022-08-21T19:25:59.879Z,89.40
2022-08-21T19:28:48.701Z,90.00
2022-08-21T19:31:35.380Z,90.20
2022-08-21T19:34:27.695Z,90.20
2022-08-21T19:37:02.911Z,90.10
2022-08-21T19:39:41.367Z,90.30
2022-08-21T19:42:53.295Z,90.30
2022-08-21T19:45:28.826Z,90.50
2022-08-21T19:48:02.514Z,90.60
2022-08-21T19:50:37.038Z,90.50
2022-08-21T19:53:12.239Z,90.50
2022-08-21T19:55:48.288Z,90.70
2022-08-21T19:58:37.846Z,90.90
2022-08-21T20:01:16.609Z,90.60
2022-08-21T20:03:54.783Z,91.10
2022-08-21T20:06:31.011Z,91.00
2022-08-21T20:09:10.983Z,91.10
2022-08-21T20:11:54.193Z,91.20
2022-08-21T20:14:31.589Z,91.40
2022-08-21T20:17:10.668Z,91.60
2022-08-21T20:20:09.240Z,91.60
2022-08-21T20:22:45.123Z,91.70
2022-08-21T20:25:18.026Z,92.00
2022-08-21T20:27:54.348Z,92.20
2022-08-21T20:30:28.139Z,92.20
2022-08-21T20:33:01.275Z,92.00
2022-08-21T20:35:35.237Z,92.70
2022-08-21T20:38:08.148Z,92.80
2022-08-21T20:40:43.667Z,92.60
2022-08-21T20:43:20.335Z,92.90
2022-08-21T20:45:53.622Z,93.00
2022-08-21T20:48:49.581Z,92.80
2022-08-21T20:51:30.200Z,93.20
2022-08-21T20:54:32.025Z,93.00
2022-08-21T20:57:29.280Z,93.20
2022-08-21T21:00:09.141Z,93.10
2022-08-21T21:03:30.168Z,93.30
2022-08-21T21:06:09.242Z,93.00
2022-08-21T21:08:50.110Z,92.70
2022-08-21T21:11:38.299Z,92.20
2022-08-21T21:14:16.881Z,92.70
2022-08-21T21:16:58.716Z,92.80
2022-08-21T21:19:47.866Z,92.20
2022-08-21T21:22:40.118Z,93.30
2022-08-21T21:25:39.945Z,93.40
2022-08-21T21:28:21.718Z,93.50
2022-08-21T21:30:57.873Z,93.60
2022-08-21T21:33:31.030Z,93.80
2022-08-21T21:36:51.438Z,94.00
2022-08-21T21:39:50.333Z,94.20
2022-08-21T21:42:32.917Z,94.30
2022-08-21T21:45:13.851Z,94.20
2022-08-21T21:48:21.349Z,94.00
2022-08-21T21:51:36.658Z,94.40
2022-08-21T21:54:40.890Z,94.10
2022-08-21T21:57:46.945Z,94.50
2022-08-21T22:00:28.250Z,94.60
2022-08-21T22:03:29.225Z,94.90
2022-08-21T22:06:24.024Z,94.90
2022-08-21T22:09:29.908Z,95.20
2022-08-21T22:12:24.059Z,95.20
2022-08-21T22:14:57.411Z,95.40
2022-08-21T22:18:04.499Z,95.60
2022-08-21T22:21:15.288Z,95.60
2022-08-21T22:23:50.997Z,95.80
2022-08-21T22:26:38.875Z,95.90
2022-08-21T22:29:20.402Z,96.20
2022-08-21T22:32:08.403Z,96.10
2022-08-21T22:34:42.265Z,95.70
2022-08-21T22:37:16.972Z,96.30
2022-08-21T22:39:54.525Z,96.40
2022-08-21T22:42:27.985Z,96.30
2022-08-21T22:45:12.090Z,96.30
2022-08-21T22:47:48.343Z,96.30
2022-08-21T22:50:24.805Z,96.40
2022-08-21T22:53:06.667Z,96.60
2022-08-21T22:55:52.302Z,96.70
2022-08-21T22:58:34.799Z,96.80
2022-08-21T23:01:27.452Z,96.80
2022-08-21T23:04:22.024Z,96.90
2022-08-21T23:07:07.682Z,96.90
2022-08-21T23:09:50.126Z,97.00
2022-08-21T23:12:43.735Z,97.00
2022-08-21T23:15:21.770Z,97.20
2022-08-21T23:18:12.248Z,97.50
2022-08-21T23:21:02.684Z,97.70
2022-08-21T23:23:53.529Z,97.80
2022-08-21T23:26:55.424Z,98.00
2022-08-21T23:29:49.028Z,98.10
2022-08-21T23:32:47.124Z,98.20
2022-08-21T23:35:59.015Z,98.30
2022-08-21T23:39:05.218Z,98.50
2022-08-21T23:41:52.390Z,98.80
2022-08-21T23:44:41.639Z,99.20
2022-08-21T23:47:32.390Z,99.90
2022-08-21T23:50:40.019Z,99.90
2022-08-21T23:53:28.993Z,99.90
2022-08-21T23:56:27.099Z,99.80
2022-08-21T23:59:18.663Z,99.80
